Time;durP1;ratioP1;P1;durP2;ratioP2;P2;SDS_P1;SDS_P2;PMS_P1;PMS_P2;Temp;Humidity;BMP_temperature;BMP_pressure;BME280_temperature;BME280_humidity;BME280_pressure;Samples;Min_cycle;Max_cycle;Signal;HPM_P1;HPM_P2
2020/12/05 00:00:26;;;;;;;29.70;15.27;;;;;;;;;;5081893;28;20050;-81
2020/12/05 00:02:52;;;;;;;31.63;16.10;;;;;;;;;;5081006;28;20043;-81
2020/12/05 00:05:26;;;;;;;33.63;16.92;;;;;;;;;;5100214;28;20147;-81
2020/12/05 00:07:57;;;;;;;34.20;17.42;;;;;;;;;;5099345;28;20051;-81
2020/12/05 00:10:26;;;;;;;33.58;16.55;;;;;;;;;;5082623;28;20059;-81
2020/12/05 00:12:59;;;;;;;35.33;17.10;;;;;;;;;;5103820;28;20078;-81
2020/12/05 00:15:25;;;;;;;34.92;18.00;;;;;;;;;;5115565;28;20058;-81
2020/12/05 00:17:58;;;;;;;32.75;16.52;;;;;;;;;;5129884;28;20035;-82
2020/12/05 00:20:26;;;;;;;30.35;16.55;;;;;;;;;;5101417;28;20077;-81
2020/12/05 00:22:58;;;;;;;33.17;17.00;;;;;;;;;;5114859;28;20431;-82
2020/12/05 00:25:30;;;;;;;36.45;17.75;;;;;;;;;;5110775;28;20101;-81
2020/12/05 00:28:02;;;;;;;32.35;18.30;;;;;;;;;;5109436;28;20058;-82
2020/12/05 00:30:30;;;;;;;31.17;16.70;;;;;;;;;;5090791;28;20138;-81
2020/12/05 00:32:58;;;;;;;35.45;17.70;;;;;;;;;;5088952;28;20051;-81
2020/12/05 00:35:24;;;;;;;34.83;16.70;;;;;;;;;;5107469;28;20048;-82
2020/12/05 00:37:57;;;;;;;37.80;17.95;;;;;;;;;;5096849;28;20172;-81
2020/12/05 00:40:35;;;;;;;32.78;16.10;;;;;;;;;;5089199;28;20044;-81
2020/12/05 00:43:02;;;;;;;33.92;16.85;;;;;;;;;;5087099;28;20047;-82
2020/12/05 00:45:28;;;;;;;32.65;17.17;;;;;;;;;;5105867;28;20078;-81
2020/12/05 00:47:57;;;;;;;35.83;17.75;;;;;;;;;;5111057;28;20065;-81
2020/12/05 00:50:27;;;;;;;35.70;16.38;;;;;;;;;;5135018;28;20067;-83
2020/12/05 00:52:53;;;;;;;35.28;16.75;;;;;;;;;;5135312;28;20116;-81
2020/12/05 00:55:21;;;;;;;32.08;15.75;;;;;;;;;;5119865;28;20090;-81
2020/12/05 00:58:02;;;;;;;32.67;16.23;;;;;;;;;;5086802;28;20295;-81
2020/12/05 01:00:28;;;;;;;29.30;17.13;;;;;;;;;;5086790;28;20116;-81
2020/12/05 01:03:00;;;;;;;32.13;16.45;;;;;;;;;;5112006;28;20087;-81
2020/12/05 01:05:32;;;;;;;36.00;17.15;;;;;;;;;;5099895;28;20040;-81
2020/12/05 01:08:10;;;;;;;32.83;16.73;;;;;;;;;;5115992;28;20077;-81
2020/12/05 01:10:37;;;;;;;35.05;17.15;;;;;;;;;;5092445;28;20070;-81
2020/12/05 01:13:04;;;;;;;37.40;18.20;;;;;;;;;;5127591;28;20051;-81
2020/12/05 01:15:30;;;;;;;33.25;18.15;;;;;;;;;;5110254;28;20047;-81
2020/12/05 01:18:11;;;;;;;31.50;16.48;;;;;;;;;;5109196;28;20534;-81
2020/12/05 01:20:51;;;;;;;39.45;17.50;;;;;;;;;;5121779;28;20470;-81
2020/12/05 01:23:20;;;;;;;34.60;17.23;;;;;;;;;;5103920;28;20065;-81
2020/12/05 01:25:47;;;;;;;39.88;18.38;;;;;;;;;;5123205;28;20069;-81
2020/12/05 01:28:17;;;;;;;35.03;18.27;;;;;;;;;;5124749;28;20083;-82
2020/12/05 01:30:43;;;;;;;38.05;16.88;;;;;;;;;;5125997;28;20047;-82
2020/12/05 01:33:09;;;;;;;35.35;17.50;;;;;;;;;;5115769;28;20047;-82
2020/12/05 01:35:36;;;;;;;33.92;16.38;;;;;;;;;;5138968;28;20209;-81
2020/12/05 01:38:03;;;;;;;35.33;18.33;;;;;;;;;;5120860;28;20103;-81
2020/12/05 01:40:38;;;;;;;31.45;16.58;;;;;;;;;;5130473;28;20043;-82
2020/12/05 01:43:06;;;;;;;34.95;18.13;;;;;;;;;;5128481;28;20070;-82
2020/12/05 01:45:32;;;;;;;37.08;18.15;;;;;;;;;;5114898;28;20358;-82
2020/12/05 01:48:06;;;;;;;39.83;19.90;;;;;;;;;;5138711;28;20042;-82
2020/12/05 01:50:34;;;;;;;38.28;18.45;;;;;;;;;;5112531;28;20052;-81
2020/12/05 01:53:06;;;;;;;34.40;18.30;;;;;;;;;;5109928;28;20062;-82
2020/12/05 01:55:37;;;;;;;39.13;19.83;;;;;;;;;;5109678;28;20083;-82
2020/12/05 01:58:06;;;;;;;35.58;19.27;;;;;;;;;;5109069;28;20074;-81
2020/12/05 02:00:34;;;;;;;35.42;18.60;;;;;;;;;;5107612;28;20063;-81
2020/12/05 02:03:00;;;;;;;40.53;19.60;;;;;;;;;;5125043;28;20104;-81
2020/12/05 02:05:37;;;;;;;36.42;18.10;;;;;;;;;;5108847;28;20059;-81
2020/12/05 02:08:09;;;;;;;37.72;17.98;;;;;;;;;;5125075;28;20059;-81
2020/12/05 02:10:40;;;;;;;38.28;19.23;;;;;;;;;;5125717;28;20529;-81
2020/12/05 02:13:09;;;;;;;38.33;19.05;;;;;;;;;;5107049;28;20047;-81
2020/12/05 02:15:39;;;;;;;39.08;18.88;;;;;;;;;;5106416;28;20048;-81
2020/12/05 02:18:06;;;;;;;38.50;21.70;;;;;;;;;;5105005;28;20104;-81
2020/12/05 02:20:36;;;;;;;37.67;19.77;;;;;;;;;;5124866;28;20059;-81
2020/12/05 02:23:12;;;;;;;39.80;19.95;;;;;;;;;;5105746;28;20047;-81
2020/12/05 02:25:50;;;;;;;37.05;19.52;;;;;;;;;;5125095;28;20377;-81
2020/12/05 02:28:21;;;;;;;38.60;21.02;;;;;;;;;;5118434;28;20059;-82
2020/12/05 02:30:47;;;;;;;40.25;17.77;;;;;;;;;;5119966;28;20075;-81
2020/12/05 02:33:14;;;;;;;41.50;21.90;;;;;;;;;;5112943;28;20047;-82
2020/12/05 02:35:40;;;;;;;35.22;18.45;;;;;;;;;;5109568;28;20059;-81
2020/12/05 02:38:18;;;;;;;37.42;20.17;;;;;;;;;;5127063;28;20058;-81
2020/12/05 02:40:49;;;;;;;34.05;18.58;;;;;;;;;;5124255;28;20362;-81
2020/12/05 02:43:16;;;;;;;35.85;19.10;;;;;;;;;;5105446;28;20047;-81
2020/12/05 02:45:42;;;;;;;41.42;19.90;;;;;;;;;;5124611;28;20065;-81
2020/12/05 02:48:09;;;;;;;40.97;20.50;;;;;;;;;;5123169;28;20170;-81
2020/12/05 02:50:38;;;;;;;41.75;21.70;;;;;;;;;;5124240;28;20099;-81
2020/12/05 02:53:05;;;;;;;40.72;21.15;;;;;;;;;;5106448;28;20308;-81
2020/12/05 02:55:39;;;;;;;50.17;21.48;;;;;;;;;;5125432;28;20048;-81
2020/12/05 02:58:08;;;;;;;39.75;20.60;;;;;;;;;;5106191;28;20047;-81
2020/12/05 03:00:35;;;;;;;36.75;20.92;;;;;;;;;;5124182;28;20067;-81
2020/12/05 03:03:02;;;;;;;41.20;21.23;;;;;;;;;;5105813;28;20044;-81
2020/12/05 03:05:38;;;;;;;42.60;22.10;;;;;;;;;;5107898;28;20058;-81
2020/12/05 03:08:10;;;;;;;39.25;21.35;;;;;;;;;;5124759;28;20051;-81
2020/12/05 03:10:36;;;;;;;40.58;21.33;;;;;;;;;;5124214;28;20054;-81
2020/12/05 03:13:02;;;;;;;40.13;21.00;;;;;;;;;;5123273;28;20047;-81
2020/12/05 03:15:32;;;;;;;39.10;21.00;;;;;;;;;;5100123;28;20044;-82
2020/12/05 03:17:58;;;;;;;43.53;21.80;;;;;;;;;;5084755;28;20121;-81
2020/12/05 03:20:27;;;;;;;40.17;20.63;;;;;;;;;;5101458;28;20063;-81
2020/12/05 03:22:54;;;;;;;39.58;22.25;;;;;;;;;;5084220;28;20059;-81
2020/12/05 03:25:20;;;;;;;43.28;22.73;;;;;;;;;;5084845;28;20048;-81
2020/12/05 03:27:46;;;;;;;38.03;20.65;;;;;;;;;;5083837;28;20079;-81
2020/12/05 03:30:15;;;;;;;41.17;22.02;;;;;;;;;;5085703;28;20463;-81
2020/12/05 03:32:48;;;;;;;39.58;21.90;;;;;;;;;;5102579;28;20052;-81
2020/12/05 03:35:16;;;;;;;42.83;23.88;;;;;;;;;;5085520;28;20154;-81
2020/12/05 03:37:42;;;;;;;45.70;23.08;;;;;;;;;;5103994;28;20052;-81
2020/12/05 03:40:11;;;;;;;41.28;22.67;;;;;;;;;;5097149;28;20040;-83
2020/12/05 03:42:39;;;;;;;40.30;22.17;;;;;;;;;;5113542;28;20062;-81
2020/12/05 03:45:06;;;;;;;45.10;23.73;;;;;;;;;;5086090;28;20056;-81
2020/12/05 03:47:33;;;;;;;43.33;22.80;;;;;;;;;;5084087;28;20139;-81
2020/12/05 03:50:03;;;;;;;42.95;22.92;;;;;;;;;;5085728;28;20143;-81
2020/12/05 03:52:30;;;;;;;43.00;22.83;;;;;;;;;;5093527;28;20036;-82
2020/12/05 03:54:57;;;;;;;44.67;23.95;;;;;;;;;;5115559;28;20047;-82
2020/12/05 03:57:24;;;;;;;44.70;23.88;;;;;;;;;;5095798;28;20107;-80
2020/12/05 03:59:50;;;;;;;49.92;25.45;;;;;;;;;;5089821;28;20043;-81
2020/12/05 04:02:16;;;;;;;44.92;23.27;;;;;;;;;;5105923;28;20048;-81
2020/12/05 04:04:45;;;;;;;42.28;22.83;;;;;;;;;;5088077;28;20108;-81
2020/12/05 04:07:14;;;;;;;45.03;23.80;;;;;;;;;;5104713;28;20048;-81
2020/12/05 04:09:47;;;;;;;44.00;23.73;;;;;;;;;;5086753;28;20098;-81
2020/12/05 04:12:14;;;;;;;45.17;24.70;;;;;;;;;;5103101;28;20091;-81
2020/12/05 04:14:41;;;;;;;41.95;24.23;;;;;;;;;;5084085;28;20044;-81
2020/12/05 04:17:08;;;;;;;44.53;24.58;;;;;;;;;;5100179;28;20059;-81
2020/12/05 04:19:38;;;;;;;47.97;25.05;;;;;;;;;;5081460;28;20394;-81
2020/12/05 04:22:06;;;;;;;47.17;25.05;;;;;;;;;;5080956;28;20056;-81
2020/12/05 04:24:32;;;;;;;47.75;23.95;;;;;;;;;;5098335;28;20054;-81
2020/12/05 04:27:01;;;;;;;45.80;24.65;;;;;;;;;;5097311;28;20235;-81
2020/12/05 04:29:32;;;;;;;45.97;24.73;;;;;;;;;;5078881;28;20195;-81
2020/12/05 04:31:58;;;;;;;45.75;24.63;;;;;;;;;;5080589;28;20135;-81
2020/12/05 04:34:27;;;;;;;55.20;26.10;;;;;;;;;;5080871;28;20252;-81
2020/12/05 04:37:02;;;;;;;46.67;24.95;;;;;;;;;;5100207;28;20044;-81
2020/12/05 04:39:31;;;;;;;47.15;24.90;;;;;;;;;;5103659;28;20108;-83
2020/12/05 04:42:02;;;;;;;44.65;24.67;;;;;;;;;;5084201;28;20071;-81
2020/12/05 04:44:31;;;;;;;51.03;24.58;;;;;;;;;;5100794;28;20087;-81
2020/12/05 04:47:02;;;;;;;50.45;25.38;;;;;;;;;;5084506;28;20048;-81
2020/12/05 04:49:32;;;;;;;48.00;24.70;;;;;;;;;;5083373;28;20335;-81
2020/12/05 04:52:20;;;;;;;47.97;25.83;;;;;;;;;;5080902;28;20104;-81
2020/12/05 04:54:50;;;;;;;45.75;25.58;;;;;;;;;;5081703;28;20044;-81
2020/12/05 04:57:19;;;;;;;48.60;26.40;;;;;;;;;;5097118;28;20052;-81
2020/12/05 04:59:49;;;;;;;50.78;25.48;;;;;;;;;;5100192;28;20052;-81
2020/12/05 05:02:18;;;;;;;45.83;25.33;;;;;;;;;;5114592;28;20090;-81
2020/12/05 05:04:44;;;;;;;49.13;25.33;;;;;;;;;;5101099;28;20083;-82
2020/12/05 05:07:11;;;;;;;53.25;26.75;;;;;;;;;;5114647;28;20048;-81
2020/12/05 05:09:51;;;;;;;47.17;26.23;;;;;;;;;;5106650;28;20529;-81
2020/12/05 05:12:27;;;;;;;51.47;26.20;;;;;;;;;;5088962;28;20055;-81
2020/12/05 05:14:54;;;;;;;48.03;25.63;;;;;;;;;;5097919;28;20070;-82
2020/12/05 05:17:21;;;;;;;47.42;26.90;;;;;;;;;;5118496;28;20052;-81
2020/12/05 05:19:47;;;;;;;48.92;26.02;;;;;;;;;;5093459;28;20044;-81
2020/12/05 05:22:19;;;;;;;48.13;26.70;;;;;;;;;;5100466;28;20058;-81
2020/12/05 05:25:06;;;;;;;46.38;26.27;;;;;;;;;;5116801;28;20039;-81
2020/12/05 05:27:32;;;;;;;51.88;27.25;;;;;;;;;;5109664;28;20051;-81
2020/12/05 05:30:13;;;;;;;51.13;27.42;;;;;;;;;;5108314;28;20056;-81
2020/12/05 05:32:46;;;;;;;48.47;26.17;;;;;;;;;;5089189;28;20128;-81
2020/12/05 05:35:14;;;;;;;50.40;28.48;;;;;;;;;;5101058;28;20048;-82
2020/12/05 05:37:42;;;;;;;49.22;27.23;;;;;;;;;;5101515;28;20055;-82
2020/12/05 05:40:14;;;;;;;52.53;28.92;;;;;;;;;;5105824;28;20058;-84
2020/12/05 05:42:41;;;;;;;49.05;27.10;;;;;;;;;;5117817;28;20047;-86
2020/12/05 05:45:18;;;;;;;51.35;28.98;;;;;;;;;;5097034;28;20074;-86
2020/12/05 05:47:45;;;;;;;55.10;29.23;;;;;;;;;;5083053;28;20047;-85
2020/12/05 05:50:29;;;;;;;57.72;30.67;;;;;;;;;;5089476;28;20148;-84
2020/12/05 05:53:07;;;;;;;57.45;29.05;;;;;;;;;;5079877;28;20056;-82
2020/12/05 05:55:37;;;;;;;60.70;31.23;;;;;;;;;;5082069;28;20051;-83
2020/12/05 05:58:09;;;;;;;60.40;30.23;;;;;;;;;;5081413;28;20062;-84
2020/12/05 06:00:42;;;;;;;60.70;32.13;;;;;;;;;;5080168;28;20060;-84
2020/12/05 06:03:19;;;;;;;58.67;30.00;;;;;;;;;;5082912;28;20068;-86
2020/12/05 06:05:54;;;;;;;60.92;32.20;;;;;;;;;;5097103;28;20052;-86
2020/12/05 06:08:24;;;;;;;63.53;32.75;;;;;;;;;;5096919;28;20066;-85
2020/12/05 06:10:57;;;;;;;67.47;33.10;;;;;;;;;;5092027;28;20048;-85
2020/12/05 06:13:28;;;;;;;69.57;34.97;;;;;;;;;;5079442;28;20087;-86
2020/12/05 06:15:56;;;;;;;63.92;33.38;;;;;;;;;;5079371;28;20068;-85
2020/12/05 06:18:23;;;;;;;71.70;34.33;;;;;;;;;;5080835;28;20083;-82
2020/12/05 06:20:54;;;;;;;72.65;36.03;;;;;;;;;;5077674;28;20044;-83
2020/12/05 06:23:36;;;;;;;65.80;34.42;;;;;;;;;;5080708;28;20064;-82
2020/12/05 06:26:06;;;;;;;68.35;35.13;;;;;;;;;;5082472;28;20049;-83
2020/12/05 06:28:38;;;;;;;65.22;33.53;;;;;;;;;;5092727;28;20041;-83
2020/12/05 06:31:05;;;;;;;67.32;34.72;;;;;;;;;;5111564;28;20052;-83
2020/12/05 06:33:37;;;;;;;65.28;35.00;;;;;;;;;;5079719;28;20068;-83
2020/12/05 06:36:23;;;;;;;66.05;33.50;;;;;;;;;;5094342;28;20332;-84
2020/12/05 06:39:08;;;;;;;70.18;35.47;;;;;;;;;;5090893;28;20056;-84
2020/12/05 06:41:41;;;;;;;66.78;32.80;;;;;;;;;;5096057;28;20410;-85
2020/12/05 06:44:15;;;;;;;72.85;36.88;;;;;;;;;;5097587;28;20323;-85
2020/12/05 06:46:47;;;;;;;68.72;35.15;;;;;;;;;;5099929;28;20096;-85
2020/12/05 06:49:42;;;;;;;75.35;34.75;;;;;;;;;;5100084;28;20052;-85
2020/12/05 06:52:24;;;;;;;68.70;34.28;;;;;;;;;;5100470;28;20062;-86
2020/12/05 06:54:56;;;;;;;70.78;34.72;;;;;;;;;;5118878;28;20438;-86
2020/12/05 06:57:33;;;;;;;66.45;33.45;;;;;;;;;;5118872;28;20390;-86
2020/12/05 07:00:17;;;;;;;66.32;34.67;;;;;;;;;;5101252;28;20051;-85
2020/12/05 07:02:53;;;;;;;68.03;34.03;;;;;;;;;;5091142;28;20055;-85
2020/12/05 07:05:23;;;;;;;65.40;33.85;;;;;;;;;;5098038;28;20028;-86
2020/12/05 07:07:50;;;;;;;67.72;33.90;;;;;;;;;;5125604;28;20043;-86
2020/12/05 07:10:18;;;;;;;74.72;36.83;;;;;;;;;;5104029;28;20062;-86
2020/12/05 07:12:49;;;;;;;72.57;36.40;;;;;;;;;;5089223;28;20062;-85
2020/12/05 07:15:25;;;;;;;72.18;36.35;;;;;;;;;;5107516;28;20052;-85
2020/12/05 07:17:58;;;;;;;76.40;38.00;;;;;;;;;;5091643;28;20437;-85
2020/12/05 07:20:27;;;;;;;71.07;35.90;;;;;;;;;;5091116;28;20040;-85
2020/12/05 07:22:56;;;;;;;73.35;36.03;;;;;;;;;;5079755;28;20063;-85
2020/12/05 07:25:27;;;;;;;72.72;34.63;;;;;;;;;;5105111;28;20129;-85
2020/12/05 07:27:56;;;;;;;70.53;36.00;;;;;;;;;;5087852;28;20611;-84
2020/12/05 07:30:25;;;;;;;74.70;35.47;;;;;;;;;;5082993;28;20043;-85
2020/12/05 07:32:54;;;;;;;80.40;36.95;;;;;;;;;;5104503;28;20325;-85
2020/12/05 07:35:26;;;;;;;66.80;34.08;;;;;;;;;;5105027;28;20101;-84
2020/12/05 07:37:54;;;;;;;78.10;34.92;;;;;;;;;;5087829;28;20052;-84
2020/12/05 07:40:27;;;;;;;73.72;36.80;;;;;;;;;;5105757;28;20139;-84
2020/12/05 07:43:01;;;;;;;71.82;36.97;;;;;;;;;;5099250;28;20059;-84
2020/12/05 07:45:42;;;;;;;77.00;36.78;;;;;;;;;;5101809;28;20069;-84
2020/12/05 07:48:53;;;;;;;;;;;;;;;;;;;;;
2020/12/05 07:52:11;;;;;;;73.88;35.47;;;;;;;;;;5019646;28;20354;-85
2020/12/05 07:54:55;;;;;;;73.43;36.80;;;;;;;;;;5013027;28;20038;-85
2020/12/05 07:57:28;;;;;;;73.93;37.58;;;;;;;;;;5021440;28;20144;-85
2020/12/05 08:00:04;;;;;;;79.90;37.75;;;;;;;;;;5026380;28;20095;-85
2020/12/05 08:02:38;;;;;;;79.22;37.38;;;;;;;;;;5013805;28;20053;-85
2020/12/05 08:05:28;;;;;;;76.22;36.22;;;;;;;;;;5012595;28;20061;-85
2020/12/05 08:08:00;;;;;;;76.63;37.28;;;;;;;;;;5006424;28;20385;-84
2020/12/05 08:10:28;;;;;;;81.30;37.78;;;;;;;;;;4979704;28;20051;-85
2020/12/05 08:13:30;;;;;;;74.95;37.70;;;;;;;;;;4979287;28;20050;-84
2020/12/05 08:16:06;;;;;;;70.20;36.47;;;;;;;;;;4993807;28;20055;-85
2020/12/05 08:18:34;;;;;;;74.63;37.17;;;;;;;;;;4994409;28;20069;-86
2020/12/05 08:21:04;;;;;;;69.40;36.30;;;;;;;;;;5013475;28;20057;-85
2020/12/05 08:23:39;;;;;;;74.03;38.83;;;;;;;;;;5092605;28;20183;-85
2020/12/05 08:26:09;;;;;;;79.03;36.92;;;;;;;;;;5098694;28;20175;-85
2020/12/05 08:28:39;;;;;;;75.43;37.92;;;;;;;;;;5101244;28;20047;-85
2020/12/05 08:31:09;;;;;;;77.38;36.47;;;;;;;;;;5129847;28;20032;-88
2020/12/05 08:33:43;;;;;;;76.07;36.95;;;;;;;;;;5133002;28;20055;-88
2020/12/05 08:36:15;;;;;;;74.53;37.60;;;;;;;;;;5131899;28;20047;-87
2020/12/05 08:38:44;;;;;;;73.88;35.90;;;;;;;;;;5123806;28;20078;-87
2020/12/05 08:41:15;;;;;;;69.55;37.35;;;;;;;;;;5122336;28;20039;-88
2020/12/05 08:43:47;;;;;;;79.22;39.65;;;;;;;;;;5130868;28;20073;-87
2020/12/05 08:46:19;;;;;;;74.55;37.15;;;;;;;;;;5112965;28;20068;-88
2020/12/05 08:48:50;;;;;;;70.97;36.58;;;;;;;;;;5100414;28;20056;-87
2020/12/05 08:51:18;;;;;;;67.63;36.30;;;;;;;;;;5096080;28;20299;-88
2020/12/05 08:53:46;;;;;;;75.70;38.88;;;;;;;;;;5078102;28;20057;-88
2020/12/05 08:56:35;;;;;;;70.68;36.95;;;;;;;;;;5078734;28;20049;-87
2020/12/05 08:59:04;;;;;;;79.28;39.63;;;;;;;;;;5077476;28;20421;-86
2020/12/05 09:01:36;;;;;;;77.00;38.50;;;;;;;;;;5077934;28;20041;-86
2020/12/05 09:04:03;;;;;;;74.15;37.67;;;;;;;;;;5077709;28;20560;-85
2020/12/05 09:06:34;;;;;;;77.47;37.53;;;;;;;;;;5076003;28;20340;-85
2020/12/05 09:09:04;;;;;;;73.05;36.00;;;;;;;;;;5077350;28;20044;-85
2020/12/05 09:11:34;;;;;;;74.25;37.47;;;;;;;;;;5077676;28;20123;-85
2020/12/05 09:14:26;;;;;;;77.22;36.72;;;;;;;;;;5080074;28;20144;-86
2020/12/05 09:16:59;;;;;;;77.47;40.42;;;;;;;;;;5091452;28;20044;-86
2020/12/05 09:19:51;;;;;;;153.15;71.32;;;;;;;;;;5086666;28;20058;-87
2020/12/05 09:22:37;;;;;;;70.10;36.85;;;;;;;;;;5111277;28;20252;-85
2020/12/05 09:25:09;;;;;;;74.35;38.40;;;;;;;;;;5084911;28;20299;-85
2020/12/05 09:27:40;;;;;;;79.50;40.60;;;;;;;;;;5076241;28;20433;-84
2020/12/05 09:30:13;;;;;;;76.30;39.65;;;;;;;;;;5076421;28;20319;-85
2020/12/05 09:32:53;;;;;;;82.63;39.10;;;;;;;;;;5076102;28;20040;-84
2020/12/05 09:35:25;;;;;;;85.97;40.88;;;;;;;;;;5082410;28;20649;-85
2020/12/05 09:37:58;;;;;;;101.63;55.50;;;;;;;;;;5091876;28;20134;-85
2020/12/05 09:40:29;;;;;;;77.05;43.47;;;;;;;;;;5089843;28;20067;-86
2020/12/05 09:43:02;;;;;;;66.97;36.92;;;;;;;;;;5088678;28;20097;-85
2020/12/05 09:45:29;;;;;;;71.60;38.10;;;;;;;;;;5076311;28;20060;-86
2020/12/05 09:48:05;;;;;;;70.13;36.03;;;;;;;;;;5075811;28;20052;-85
2020/12/05 09:50:37;;;;;;;71.95;37.13;;;;;;;;;;5094827;28;20063;-86
2020/12/05 09:53:09;;;;;;;70.82;37.50;;;;;;;;;;5095179;28;20147;-87
2020/12/05 09:55:48;;;;;;;66.07;35.65;;;;;;;;;;5097849;28;20079;-87
2020/12/05 09:59:09;;;;;;;70.97;35.53;;;;;;;;;;5092979;28;20055;-86
2020/12/05 10:05:23;;;;;;;69.57;34.15;;;;;;;;;;5091028;28;20226;-87
2020/12/05 10:08:14;;;;;;;61.05;33.13;;;;;;;;;;5097934;28;20279;-87
2020/12/05 10:11:05;;;;;;;62.45;33.17;;;;;;;;;;5094141;28;20130;-87
2020/12/05 10:13:45;;;;;;;62.15;32.22;;;;;;;;;;5095896;28;20039;-87
2020/12/05 10:16:26;;;;;;;64.72;33.75;;;;;;;;;;5090821;28;20088;-88
2020/12/05 10:19:04;;;;;;;78.55;36.47;;;;;;;;;;5088331;28;20524;-87
2020/12/05 10:21:57;;;;;;;65.60;34.90;;;;;;;;;;5093627;28;20195;-87
2020/12/05 10:24:28;;;;;;;68.32;34.65;;;;;;;;;;5074727;28;20399;-88
2020/12/05 10:26:55;;;;;;;69.10;33.75;;;;;;;;;;5078567;28;20047;-88
2020/12/05 10:29:24;;;;;;;60.55;33.17;;;;;;;;;;5087268;28;20261;-88
2020/12/05 10:31:53;;;;;;;76.95;39.53;;;;;;;;;;5075163;28;20040;-88
2020/12/05 10:34:20;;;;;;;63.67;32.42;;;;;;;;;;5091698;28;20250;-88
2020/12/05 10:36:53;;;;;;;54.30;30.45;;;;;;;;;;5098230;28;20370;-88
2020/12/05 10:39:22;;;;;;;60.83;32.65;;;;;;;;;;5085086;28;20048;-88
2020/12/05 10:41:51;;;;;;;63.97;31.85;;;;;;;;;;5098011;28;20051;-87
2020/12/05 10:44:21;;;;;;;61.83;33.25;;;;;;;;;;5096379;28;20331;-86
2020/12/05 10:46:52;;;;;;;59.60;31.27;;;;;;;;;;5061070;28;20045;-86
2020/12/05 10:49:28;;;;;;;48.90;27.40;;;;;;;;;;5070362;28;20429;-86
2020/12/05 10:52:14;;;;;;;40.42;22.92;;;;;;;;;;5053274;28;20440;-85
2020/12/05 10:54:58;;;;;;;60.42;31.10;;;;;;;;;;5054293;28;20107;-84
2020/12/05 10:57:28;;;;;;;44.05;23.98;;;;;;;;;;5066443;28;20048;-84
2020/12/05 11:00:01;;;;;;;40.78;23.27;;;;;;;;;;5072749;28;20113;-83
2020/12/05 11:02:34;;;;;;;42.65;22.92;;;;;;;;;;5071487;28;20125;-83
2020/12/05 11:05:06;;;;;;;36.75;21.90;;;;;;;;;;5065880;28;20154;-83
2020/12/05 11:08:04;;;;;;;31.95;19.17;;;;;;;;;;5055033;28;20045;-83
2020/12/05 11:10:34;;;;;;;34.05;21.73;;;;;;;;;;5054436;28;20080;-83
2020/12/05 11:13:11;;;;;;;32.13;20.15;;;;;;;;;;5071565;28;20412;-82
2020/12/05 11:15:44;;;;;;;33.42;20.80;;;;;;;;;;5073551;28;20047;-83
2020/12/05 11:18:20;;;;;;;31.05;19.77;;;;;;;;;;5070814;28;20116;-83
2020/12/05 11:20:51;;;;;;;31.02;19.65;;;;;;;;;;5093744;28;20036;-83
2020/12/05 11:23:21;;;;;;;36.50;20.83;;;;;;;;;;5071325;28;20067;-83
2020/12/05 11:25:53;;;;;;;35.28;20.90;;;;;;;;;;5081015;28;20432;-83
2020/12/05 11:28:26;;;;;;;35.00;21.25;;;;;;;;;;5061939;28;20303;-82
2020/12/05 11:30:55;;;;;;;32.33;19.65;;;;;;;;;;5076586;28;20512;-83
2020/12/05 11:33:29;;;;;;;30.17;18.17;;;;;;;;;;5082914;28;20044;-83
2020/12/05 11:36:17;;;;;;;32.22;19.25;;;;;;;;;;5076881;28;20053;-83
2020/12/05 11:38:48;;;;;;;27.42;17.80;;;;;;;;;;5067894;28;20099;-82
2020/12/05 11:41:27;;;;;;;32.88;17.45;;;;;;;;;;5054690;28;20053;-81
2020/12/05 11:44:03;;;;;;;31.50;18.33;;;;;;;;;;5056096;28;20124;-81
2020/12/05 11:46:36;;;;;;;27.90;17.48;;;;;;;;;;5093155;28;20055;-81
2020/12/05 11:49:06;;;;;;;29.17;18.77;;;;;;;;;;5096163;28;20101;-81
2020/12/05 11:51:43;;;;;;;27.35;17.52;;;;;;;;;;5092615;28;20078;-81
2020/12/05 11:54:18;;;;;;;29.83;19.38;;;;;;;;;;5100015;28;20047;-81
2020/12/05 11:56:56;;;;;;;31.08;17.80;;;;;;;;;;5096320;28;20072;-81
2020/12/05 11:59:26;;;;;;;27.60;17.08;;;;;;;;;;5096609;28;20494;-81
2020/12/05 12:01:53;;;;;;;35.75;18.25;;;;;;;;;;5106407;28;20070;-82
2020/12/05 12:04:33;;;;;;;28.55;18.48;;;;;;;;;;5127654;28;20093;-81
2020/12/05 12:07:19;;;;;;;27.75;18.88;;;;;;;;;;5120374;28;20047;-82
2020/12/05 12:12:43;;;;;;;31.58;18.38;;;;;;;;;;5126331;28;20039;-82
2020/12/05 12:15:27;;;;;;;30.88;20.15;;;;;;;;;;5111531;28;20242;-82
2020/12/05 12:17:55;;;;;;;29.13;18.73;;;;;;;;;;5105045;28;20059;-81
2020/12/05 12:20:24;;;;;;;30.33;18.15;;;;;;;;;;5098703;28;20051;-82
2020/12/05 12:23:01;;;;;;;28.45;18.30;;;;;;;;;;5098835;28;20075;-81
2020/12/05 12:25:35;;;;;;;28.60;18.02;;;;;;;;;;5098294;28;20062;-82
2020/12/05 12:28:07;;;;;;;28.55;18.95;;;;;;;;;;5079544;28;20058;-82
2020/12/05 12:30:42;;;;;;;30.00;17.55;;;;;;;;;;5079405;28;20459;-82
2020/12/05 12:33:16;;;;;;;30.30;18.85;;;;;;;;;;5115665;28;20047;-82
2020/12/05 12:35:48;;;;;;;29.20;20.50;;;;;;;;;;5100709;28;20062;-82
2020/12/05 12:38:19;;;;;;;31.23;20.33;;;;;;;;;;5098292;28;20158;-82
2020/12/05 12:40:57;;;;;;;38.97;24.50;;;;;;;;;;5079461;28;20047;-82
2020/12/05 12:43:32;;;;;;;42.47;25.92;;;;;;;;;;5081092;28;20060;-82
2020/12/05 12:46:33;;;;;;;44.13;26.85;;;;;;;;;;5092062;28;20046;-82
2020/12/05 12:49:36;;;;;;;47.05;27.65;;;;;;;;;;5096042;28;20040;-82
2020/12/05 12:52:14;;;;;;;51.33;28.60;;;;;;;;;;5075025;28;20056;-81
2020/12/05 12:54:54;;;;;;;44.88;27.92;;;;;;;;;;5076625;28;20134;-82
2020/12/05 12:57:38;;;;;;;47.58;29.55;;;;;;;;;;5085711;28;20048;-82
2020/12/05 13:00:23;;;;;;;51.45;31.42;;;;;;;;;;5093331;28;20040;-82
2020/12/05 13:02:54;;;;;;;53.10;32.55;;;;;;;;;;5080686;28;20110;-81
2020/12/05 13:05:40;;;;;;;53.28;32.95;;;;;;;;;;5094870;28;20043;-82
2020/12/05 13:08:30;;;;;;;54.35;32.08;;;;;;;;;;5097731;28;20044;-82
2020/12/05 13:11:02;;;;;;;52.53;33.58;;;;;;;;;;5096477;28;20048;-82
2020/12/05 13:14:03;;;;;;;56.08;33.30;;;;;;;;;;5080460;28;20049;-84
2020/12/05 13:16:42;;;;;;;51.05;32.00;;;;;;;;;;5097038;28;20115;-82
2020/12/05 13:19:23;;;;;;;56.78;34.40;;;;;;;;;;5096919;28;20052;-82
2020/12/05 13:21:54;;;;;;;55.03;34.22;;;;;;;;;;5088859;28;20048;-82
2020/12/05 13:24:25;;;;;;;50.55;31.17;;;;;;;;;;5093306;28;20298;-82
2020/12/05 13:26:54;;;;;;;54.05;32.28;;;;;;;;;;5089617;28;20066;-82
2020/12/05 13:29:23;;;;;;;48.60;29.75;;;;;;;;;;5092271;28;20044;-82
2020/12/05 13:31:50;;;;;;;51.35;31.90;;;;;;;;;;5095683;28;20143;-82
2020/12/05 13:34:26;;;;;;;47.13;29.77;;;;;;;;;;5092530;28;20052;-82
2020/12/05 13:36:54;;;;;;;52.00;31.05;;;;;;;;;;5100967;28;20097;-82
2020/12/05 13:39:32;;;;;;;41.15;28.50;;;;;;;;;;5093378;28;20142;-82
2020/12/05 13:42:02;;;;;;;46.70;29.35;;;;;;;;;;5089139;28;20059;-82
2020/12/05 13:44:30;;;;;;;44.17;29.10;;;;;;;;;;5091172;28;20054;-82
2020/12/05 13:47:04;;;;;;;40.20;27.08;;;;;;;;;;5076381;28;20336;-82
2020/12/05 13:49:31;;;;;;;43.67;28.35;;;;;;;;;;5067227;28;20041;-82
2020/12/05 13:52:04;;;;;;;42.97;27.55;;;;;;;;;;5076404;28;20098;-83
2020/12/05 13:54:32;;;;;;;41.63;26.58;;;;;;;;;;5070784;28;20037;-82
2020/12/05 13:57:06;;;;;;;41.50;27.63;;;;;;;;;;5064542;28;20422;-82
2020/12/05 13:59:35;;;;;;;71.50;47.20;;;;;;;;;;5063355;28;20049;-81
2020/12/05 14:02:02;;;;;;;37.85;26.70;;;;;;;;;;5066725;28;20048;-82
2020/12/05 14:04:29;;;;;;;40.15;26.63;;;;;;;;;;5062611;28;20064;-82
2020/12/05 14:06:56;;;;;;;41.17;28.60;;;;;;;;;;5067654;28;20045;-82
2020/12/05 14:09:31;;;;;;;40.00;26.07;;;;;;;;;;5063312;28;20045;-82
2020/12/05 14:12:02;;;;;;;37.83;25.85;;;;;;;;;;5067401;28;20044;-83
2020/12/05 14:14:33;;;;;;;41.08;29.15;;;;;;;;;;5060727;28;20041;-83
2020/12/05 14:17:02;;;;;;;44.63;31.88;;;;;;;;;;5061021;28;20204;-83
2020/12/05 14:19:32;;;;;;;35.03;23.88;;;;;;;;;;5062295;28;20132;-83
2020/12/05 14:22:02;;;;;;;39.65;25.65;;;;;;;;;;5062825;28;20053;-83
2020/12/05 14:24:42;;;;;;;36.80;24.50;;;;;;;;;;5066776;28;20037;-83
2020/12/05 14:27:11;;;;;;;38.38;25.42;;;;;;;;;;5061818;28;20045;-84
2020/12/05 14:29:39;;;;;;;35.88;24.75;;;;;;;;;;5063939;28;20040;-83
2020/12/05 14:32:06;;;;;;;38.45;25.00;;;;;;;;;;5071384;28;20055;-83
2020/12/05 14:34:37;;;;;;;38.45;23.98;;;;;;;;;;5060677;28;20140;-83
2020/12/05 14:37:11;;;;;;;37.13;26.02;;;;;;;;;;5067754;28;20334;-81
2020/12/05 14:39:40;;;;;;;34.10;23.35;;;;;;;;;;5076163;28;20051;-83
2020/12/05 14:42:08;;;;;;;39.97;26.38;;;;;;;;;;5082060;28;20048;-81
2020/12/05 14:44:40;;;;;;;36.88;25.70;;;;;;;;;;5074442;28;20098;-82
2020/12/05 14:47:09;;;;;;;36.95;24.65;;;;;;;;;;5104378;28;20107;-82
2020/12/05 14:49:48;;;;;;;36.63;25.05;;;;;;;;;;5093454;28;20245;-82
2020/12/05 14:52:46;;;;;;;36.88;23.63;;;;;;;;;;5090903;28;20048;-82
2020/12/05 14:55:23;;;;;;;34.03;22.90;;;;;;;;;;5086527;28;20048;-82
2020/12/05 14:57:51;;;;;;;38.92;25.33;;;;;;;;;;5088411;28;20047;-82